Aviation Digital Data Service (ADDS)

Output produced by METARs form (0506 UTC 28 August 2015)
found at http://www.aviationweather.gov/adds/metars/
 
KAOO 280453Z AUTO 00000KT 6SM BR BKN060 13/11 A3021 RMK AO2 SLP226 T01280111 402170106
KAOO 280353Z AUTO 21003KT 10SM CLR 13/11 A3020 RMK AO2 SLP223 T01330111
KAOO 280253Z AUTO 00000KT 10SM FEW060 14/12 A3020 RMK AO2 SLP222 T01390117 51010
KAOO 280153Z AUTO 00000KT 10SM OVC060 17/13 A3019 RMK AO2 SLP221 T01670133
KAOO 280053Z AUTO 00000KT 10SM OVC060 18/13 A3018 RMK AO2 SLP215 T01780128
KAOO 272353Z AUTO 26003KT 10SM OVC060 19/13 A3017 RMK AO2 SLP212 T01890128 10217 20189 53006
KAOO 272253Z AUTO 26003KT 10SM OVC060 20/12 A3015 RMK AO2 SLP208 T02000122
KAOO 272153Z AUTO 28003KT 10SM OVC060 21/12 A3015 RMK AO2 SLP205 T02060117
KAOO 272053Z AUTO 28006KT 10SM SCT034 OVC055 21/12 A3015 RMK AO2 SLP206 T02060117 56009
KAOO 271953Z AUTO 29006KT 10SM SCT035 SCT043 OVC060 21/11 A3015 RMK AO2 SLP205 T02110111
KAOO 271853Z AUTO 31007KT 280V340 10SM BKN034 OVC055 21/12 A3017 RMK AO2 SLP210 T02110117
KAOO 271753Z AUTO VRB05KT 10SM OVC055 21/11 A3018 RMK AO2 SLP214 T02060111 10211 20156 58003
KAOO 271653Z AUTO 31006KT 10SM OVC050 20/11 A3018 RMK AO2 SLP216 T02000111
KAOO 271553Z AUTO 28004KT 10SM BKN035 BKN055 20/11 A3018 RMK AO2 SLP216 T02000111
KAOO 271453Z AUTO 29004KT 10SM BKN033 19/11 A3018 RMK AO2 SLP217 T01940111 51007
KAOO 271353Z AUTO VRB04KT 10SM FEW023 SCT030 18/12 A3018 RMK AO2 SLP217 T01780117
KAOO 271253Z AUTO VRB05KT 10SM CLR 17/12 A3017 RMK AO2 SLP213 T01720117
KAOO 271153Z AUTO 00000KT 10SM CLR 16/12 A3016 RMK AO2 SLP210 T01560117 10156 20106 52013
KAOO 271107Z AUTO 00000KT 7SM SCT021 12/10 A3015 RMK AO2 T01170100
KAOO 271053Z AUTO 00000KT 7SM BKN021 12/11 A3015 RMK AO2 SLP208 T01170106
KAOO 271034Z AUTO 00000KT 7SM BKN021 BKN060 11/10 A3014 RMK AO2 T01110100
KAOO 270953Z AUTO 00000KT 10SM SCT060 11/09 A3014 RMK AO2 SLP203 T01110094
KAOO 270853Z AUTO 00000KT 8SM FEW065 12/11 A3012 RMK AO2 SLP198 T01170106 56002
KAOO 270753Z AUTO 00000KT 10SM OVC065 14/11 A3012 RMK AO2 SLP196 T01390111
KAOO 270653Z AUTO 00000KT 10SM OVC070 14/11 A3013 RMK AO2 SLP198 T01390111
KAOO 270553Z AUTO 00000KT 10SM OVC070 15/12 A3013 RMK AO2 SLP198 T01500122 10178 20139 50000
KAOO 270453Z AUTO 00000KT 10SM OVC070 16/12 A3014 RMK AO2 SLP201 T01560122 402280094
KAOO 270353Z AUTO 00000KT 10SM BKN070 14/12 A3014 RMK AO2 SLP202 T01390117
KAOO 270253Z AUTO 00000KT 10SM FEW070 15/12 A3013 RMK AO2 SLP198 T01500117 51017
KAOO 270153Z AUTO 00000KT 10SM BKN075 16/12 A3012 RMK AO2 SLP196 T01610117
KAOO 270053Z AUTO 32004KT 10SM BKN080 17/11 A3010 RMK AO2 SLP188 T01720111
KAOO 262353Z AUTO 30004KT 10SM SCT080 18/11 A3008 RMK AO2 SLP183 T01780111 10217 20178 55000
KAOO 262253Z AUTO 31005KT 10SM OVC080 19/11 A3007 RMK AO2 SLP181 T01940111
KAOO 262153Z AUTO 27004KT 10SM OVC075 20/11 A3007 RMK AO2 SLP180 T02000106
KAOO 262053Z AUTO 29004KT 10SM OVC075 21/11 A3008 RMK AO2 SLP183 T02060106 58002
KAOO 261953Z AUTO 32007KT 10SM FEW039 OVC075 21/10 A3008 RMK AO2 SLP182 T02110100
KAOO 261853Z AUTO 32008KT 270V350 10SM BKN060 OVC070 21/10 A3009 RMK AO2 SLP185 T02060100
KAOO 261753Z AUTO 29006KT 10SM OVC065 21/10 A3009 RMK AO2 SLP183 T02110100 10228 20128 58001